Terminal Aerodrome Forecast
Issued by NWS

Home | Current Version | Previous Version | Text Only | Print | Product List | Glossary On
Versions: 1 2 3 4 5 6 7 8 9 10 11 12 13
000
FTUS42 TJSJ 290544
TAFNCM
TAF
TNCM 290544Z 2906/3006 09025G35KT P6SM -SHRA VCTS SCT018CB BKN040
      OVC060
     FM291500 09015G25KT P6SM VCTS SCT020CB BKN050 OVC070
     FM292300 09012KT P6SM VCSH SCT018=

USA.gov is the U.S. government's official web portal to all federal, state and local government web resources and services.